PWSweather.com
Personal Weather Stations
Station Observations
METEACHIET
Pas De Calais, AchietLeGrandFR

Pas De CalaisAchietLeGrandFR

Lat: 50.1302778, Lon: 2.78333333

Elevation: 406.8

Station Type: Davis VP2

http://meteo-achiet.shost.ca/index.php

Latest ConditionsUpdated 11:00:00 PM GMT+01:01 Sunday, Jan 19, 2020
Currently Today's Max Today's Min Today's Average
Temperature 35.6°F2.0°C 44.8°F7.1°C 34.7°F1.5°C 38.1°F3.4°C
Dew Point 33.8°F1.0°C 39.2°F4.0°C 32.9°F0.5°C 35.1°F1.7°C
Winds 2.0 mph N3.2 kmh N 6.0 mph -9.7 kmh - - 3.0 mph 4.8 kmh
Wind Gusts 5.0 mph8.0 kmh 16.0 mph25.7 kmh - -
Humidity 93% 95% 78% 89%
Pressure 30.92 in1047.1 mb 30.92 in1047.1 mb 30.50 in1032.8 mb -
Precipitation - 0.05 in1.3 mm - -
Hour Temp Dew Point Humidity Winds Wind Gusts Pressure Precip Precip Rate Daily Precip Total
11:00 PM 35.6°F2.0°C 33.8°F1.0°C 93% 2.0 mph N3.2 kmh N 5.0 mph8.0 kmh 30.92 in1047.1 mb 0.00 in0.0 mm 0.00 in0.0 mm 0.05 in1.3 mm
10:50 PM 35.8°F2.1°C 34.0°F1.1°C 93% 2.0 mph N3.2 kmh N 5.0 mph8.0 kmh 30.92 in1047.1 mb 0.00 in0.0 mm 0.00 in0.0 mm 0.05 in1.3 mm
10:40 PM 35.8°F2.1°C 34.0°F1.1°C 93% 2.0 mph N3.2 kmh N 6.0 mph9.7 kmh 30.91 in1046.7 mb 0.00 in0.0 mm 0.00 in0.0 mm 0.05 in1.3 mm
10:30 PM 36.0°F2.2°C 34.1°F1.2°C 93% 2.0 mph N3.2 kmh N 6.0 mph9.7 kmh 30.91 in1046.7 mb 0.00 in0.0 mm 0.00 in0.0 mm 0.05 in1.3 mm
10:20 PM 35.8°F2.1°C 34.0°F1.1°C 93% 2.0 mph N3.2 kmh N 5.0 mph8.0 kmh 30.91 in1046.7 mb 0.00 in0.0 mm 0.00 in0.0 mm 0.05 in1.3 mm
10:10 PM 35.6°F2.0°C 33.5°F0.8°C 92% 2.0 mph N3.2 kmh N 5.0 mph8.0 kmh 30.91 in1046.7 mb 0.00 in0.0 mm 0.00 in0.0 mm 0.05 in1.3 mm
10:00 PM 35.6°F2.0°C 33.5°F0.8°C 92% 1.0 mph N1.6 kmh N 4.0 mph6.4 kmh 30.91 in1046.7 mb 0.00 in0.0 mm 0.00 in0.0 mm 0.05 in1.3 mm
09:50 PM 35.6°F2.0°C 33.5°F0.8°C 92% 1.0 mph N1.6 kmh N 4.0 mph6.4 kmh 30.91 in1046.7 mb 0.00 in0.0 mm 0.00 in0.0 mm 0.05 in1.3 mm
09:40 PM 35.8°F2.1°C 33.4°F0.8°C 91% 1.0 mph N1.6 kmh N 4.0 mph6.4 kmh 30.90 in1046.4 mb 0.00 in0.0 mm 0.00 in0.0 mm 0.05 in1.3 mm
09:30 PM 36.0°F2.2°C 33.6°F0.9°C 91% 1.0 mph N1.6 kmh N 3.0 mph4.8 kmh 30.90 in1046.4 mb 0.00 in0.0 mm 0.00 in0.0 mm 0.05 in1.3 mm
09:20 PM 36.1°F2.3°C 33.8°F1.0°C 91% 1.0 mph N1.6 kmh N 3.0 mph4.8 kmh 30.89 in1046.1 mb 0.00 in0.0 mm 0.00 in0.0 mm 0.05 in1.3 mm
09:10 PM 36.1°F2.3°C 33.8°F1.0°C 91% 1.0 mph NNE1.6 kmh NNE 3.0 mph4.8 kmh 30.89 in1046.1 mb 0.00 in0.0 mm 0.00 in0.0 mm 0.05 in1.3 mm
09:00 PM 36.1°F2.3°C 33.8°F1.0°C 91% 1.0 mph N1.6 kmh N 6.0 mph9.7 kmh 30.89 in1046.1 mb 0.00 in0.0 mm 0.00 in0.0 mm 0.05 in1.3 mm
08:50 PM 36.1°F2.3°C 33.5°F0.8°C 90% 1.0 mph N1.6 kmh N 3.0 mph4.8 kmh 30.89 in1046.1 mb 0.00 in0.0 mm 0.00 in0.0 mm 0.05 in1.3 mm
08:40 PM 36.3°F2.4°C 33.7°F0.9°C 90% 1.0 mph NNE1.6 kmh NNE 4.0 mph6.4 kmh 30.88 in1045.7 mb 0.00 in0.0 mm 0.00 in0.0 mm 0.05 in1.3 mm
08:30 PM 36.7°F2.6°C 33.7°F0.9°C 89% 1.0 mph NNE1.6 kmh NNE 4.0 mph6.4 kmh 30.89 in1046.1 mb 0.00 in0.0 mm 0.00 in0.0 mm 0.05 in1.3 mm
08:20 PM 36.9°F2.7°C 33.9°F1.1°C 89% 1.0 mph N1.6 kmh N 4.0 mph6.4 kmh 30.88 in1045.7 mb 0.00 in0.0 mm 0.00 in0.0 mm 0.05 in1.3 mm
08:10 PM 37.0°F2.8°C 34.1°F1.2°C 89% 1.0 mph N1.6 kmh N 4.0 mph6.4 kmh 30.88 in1045.7 mb 0.00 in0.0 mm 0.00 in0.0 mm 0.05 in1.3 mm
08:00 PM 37.2°F2.9°C 34.0°F1.1°C 88% 2.0 mph NNE3.2 kmh NNE 4.0 mph6.4 kmh 30.87 in1045.4 mb 0.00 in0.0 mm 0.00 in0.0 mm 0.05 in1.3 mm
07:50 PM 37.4°F3.0°C 34.2°F1.2°C 88% 1.0 mph NNE1.6 kmh NNE 5.0 mph8.0 kmh 30.87 in1045.4 mb 0.00 in0.0 mm 0.00 in0.0 mm 0.05 in1.3 mm
07:40 PM 37.6°F3.1°C 34.1°F1.2°C 87% 2.0 mph NNE3.2 kmh NNE 5.0 mph8.0 kmh 30.86 in1045.0 mb 0.00 in0.0 mm 0.00 in0.0 mm 0.05 in1.3 mm
07:30 PM 37.9°F3.3°C 34.4°F1.3°C 87% 2.0 mph NNE3.2 kmh NNE 6.0 mph9.7 kmh 30.86 in1045.0 mb 0.00 in0.0 mm 0.00 in0.0 mm 0.05 in1.3 mm
07:20 PM 37.9°F3.3°C 34.4°F1.3°C 87% 2.0 mph NNE3.2 kmh NNE 6.0 mph9.7 kmh 30.86 in1045.0 mb 0.00 in0.0 mm 0.00 in0.0 mm 0.05 in1.3 mm
06:50 PM 38.1°F3.4°C 34.6°F1.4°C 87% 2.0 mph N3.2 kmh N 6.0 mph9.7 kmh 30.85 in1044.7 mb 0.00 in0.0 mm 0.00 in0.0 mm 0.05 in1.3 mm
06:40 PM 38.3°F3.5°C 34.5°F1.4°C 86% 2.0 mph N3.2 kmh N 7.0 mph11.3 kmh 30.84 in1044.4 mb 0.00 in0.0 mm 0.00 in0.0 mm 0.05 in1.3 mm
06:30 PM 38.5°F3.6°C 34.7°F1.5°C 86% 1.0 mph N1.6 kmh N 5.0 mph8.0 kmh 30.84 in1044.4 mb 0.00 in0.0 mm 0.00 in0.0 mm 0.05 in1.3 mm
06:20 PM 38.8°F3.8°C 35.0°F1.7°C 86% 2.0 mph N3.2 kmh N 7.0 mph11.3 kmh 30.84 in1044.4 mb 0.00 in0.0 mm 0.00 in0.0 mm 0.05 in1.3 mm
06:10 PM 39.2°F4.0°C 35.1°F1.7°C 85% 2.0 mph N3.2 kmh N 5.0 mph8.0 kmh 30.84 in1044.4 mb 0.00 in0.0 mm 0.00 in0.0 mm 0.05 in1.3 mm
06:00 PM 39.7°F4.3°C 35.6°F2.0°C 85% 2.0 mph N3.2 kmh N 6.0 mph9.7 kmh 30.83 in1044.0 mb 0.00 in0.0 mm 0.00 in0.0 mm 0.05 in1.3 mm
05:50 PM 39.9°F4.4°C 35.5°F1.9°C 84% 2.0 mph N3.2 kmh N 7.0 mph11.3 kmh 30.83 in1044.0 mb 0.00 in0.0 mm 0.00 in0.0 mm 0.05 in1.3 mm
05:40 PM 40.5°F4.7°C 36.0°F2.2°C 84% 2.0 mph NNE3.2 kmh NNE 7.0 mph11.3 kmh 30.82 in1043.7 mb 0.00 in0.0 mm 0.00 in0.0 mm 0.05 in1.3 mm
05:30 PM 40.6°F4.8°C 35.9°F2.2°C 83% 3.0 mph NNE4.8 kmh NNE 7.0 mph11.3 kmh 30.81 in1043.3 mb 0.00 in0.0 mm 0.00 in0.0 mm 0.05 in1.3 mm
05:20 PM 41.2°F5.1°C 36.1°F2.3°C 82% 3.0 mph NNE4.8 kmh NNE 8.0 mph12.9 kmh 30.81 in1043.3 mb 0.00 in0.0 mm 0.00 in0.0 mm 0.05 in1.3 mm
05:10 PM 41.5°F5.3°C 36.5°F2.5°C 82% 4.0 mph NNE6.4 kmh NNE 10.0 mph16.1 kmh 30.80 in1043.0 mb 0.00 in0.0 mm 0.00 in0.0 mm 0.05 in1.3 mm
05:00 PM 41.7°F5.4°C 36.3°F2.4°C 81% 5.0 mph NNE8.0 kmh NNE 10.0 mph16.1 kmh 30.80 in1043.0 mb 0.00 in0.0 mm 0.00 in0.0 mm 0.05 in1.3 mm
04:50 PM 42.1°F5.6°C 36.7°F2.6°C 81% 4.0 mph NNE6.4 kmh NNE 10.0 mph16.1 kmh 30.79 in1042.7 mb 0.00 in0.0 mm 0.00 in0.0 mm 0.05 in1.3 mm
04:40 PM 41.9°F5.5°C 36.8°F2.7°C 82% 4.0 mph N6.4 kmh N 14.0 mph22.5 kmh 30.79 in1042.7 mb 0.00 in0.0 mm 0.00 in0.0 mm 0.05 in1.3 mm
04:30 PM 42.1°F5.6°C 37.6°F3.1°C 84% 5.0 mph NNE8.0 kmh NNE 13.0 mph20.9 kmh 30.79 in1042.7 mb 0.00 in0.0 mm 0.00 in0.0 mm 0.05 in1.3 mm
04:20 PM 41.9°F5.5°C 37.4°F3.0°C 84% 3.0 mph NNE4.8 kmh NNE 10.0 mph16.1 kmh 30.78 in1042.3 mb 0.00 in0.0 mm 0.00 in0.0 mm 0.05 in1.3 mm
04:10 PM 42.3°F5.7°C 37.5°F3.1°C 83% 3.0 mph N4.8 kmh N 8.0 mph12.9 kmh 30.78 in1042.3 mb 0.00 in0.0 mm 0.00 in0.0 mm 0.05 in1.3 mm
04:00 PM 43.3°F6.3°C 37.9°F3.3°C 81% 5.0 mph N8.0 kmh N 14.0 mph22.5 kmh 30.77 in1042.0 mb 0.00 in0.0 mm 0.00 in0.0 mm 0.05 in1.3 mm
03:50 PM 44.2°F6.8°C 38.1°F3.4°C 79% 4.0 mph NNE6.4 kmh NNE 9.0 mph14.5 kmh 30.77 in1042.0 mb 0.00 in0.0 mm 0.00 in0.0 mm 0.05 in1.3 mm
03:40 PM 44.2°F6.8°C 38.5°F3.6°C 80% 4.0 mph NNE6.4 kmh NNE 9.0 mph14.5 kmh 30.77 in1042.0 mb 0.00 in0.0 mm 0.00 in0.0 mm 0.05 in1.3 mm
03:30 PM 44.2°F6.8°C 38.8°F3.8°C 81% 3.0 mph NNE4.8 kmh NNE 10.0 mph16.1 kmh 30.77 in1042.0 mb 0.00 in0.0 mm 0.00 in0.0 mm 0.05 in1.3 mm
03:20 PM 44.1°F6.7°C 38.9°F3.8°C 82% 3.0 mph N4.8 kmh N 12.0 mph19.3 kmh 30.76 in1041.7 mb 0.00 in0.0 mm 0.00 in0.0 mm 0.05 in1.3 mm
03:10 PM 43.9°F6.6°C 38.4°F3.6°C 81% 3.0 mph NNE4.8 kmh NNE 8.0 mph12.9 kmh 30.76 in1041.7 mb 0.00 in0.0 mm 0.00 in0.0 mm 0.05 in1.3 mm
03:00 PM 44.2°F6.8°C 38.1°F3.4°C 79% 3.0 mph NNE4.8 kmh NNE 11.0 mph17.7 kmh 30.76 in1041.7 mb 0.00 in0.0 mm 0.00 in0.0 mm 0.05 in1.3 mm
02:50 PM 44.8°F7.1°C 38.7°F3.7°C 79% 5.0 mph NNE8.0 kmh NNE 12.0 mph19.3 kmh 30.75 in1041.3 mb 0.00 in0.0 mm 0.00 in0.0 mm 0.05 in1.3 mm
02:40 PM 44.8°F7.1°C 38.3°F3.5°C 78% 5.0 mph NNE8.0 kmh NNE 14.0 mph22.5 kmh 30.75 in1041.3 mb 0.00 in0.0 mm 0.00 in0.0 mm 0.05 in1.3 mm
02:30 PM 44.8°F7.1°C 38.3°F3.5°C 78% 5.0 mph NNE8.0 kmh NNE 15.0 mph24.1 kmh 30.75 in1041.3 mb 0.00 in0.0 mm 0.00 in0.0 mm 0.05 in1.3 mm
02:20 PM 44.8°F7.1°C 39.0°F3.9°C 80% 4.0 mph NNE6.4 kmh NNE 10.0 mph16.1 kmh 30.75 in1041.3 mb 0.00 in0.0 mm 0.00 in0.0 mm 0.05 in1.3 mm
02:10 PM 44.4°F6.9°C 39.0°F3.9°C 81% 4.0 mph NNE6.4 kmh NNE 13.0 mph20.9 kmh 30.75 in1041.3 mb 0.00 in0.0 mm 0.00 in0.0 mm 0.05 in1.3 mm
02:00 PM 44.2°F6.8°C 38.8°F3.8°C 81% 5.0 mph NNE8.0 kmh NNE 13.0 mph20.9 kmh 30.75 in1041.3 mb 0.00 in0.0 mm 0.00 in0.0 mm 0.05 in1.3 mm
01:50 PM 44.2°F6.8°C 38.8°F3.8°C 81% 4.0 mph NNE6.4 kmh NNE 12.0 mph19.3 kmh 30.75 in1041.3 mb 0.00 in0.0 mm 0.00 in0.0 mm 0.05 in1.3 mm
01:40 PM 44.1°F6.7°C 38.9°F3.8°C 82% 4.0 mph N6.4 kmh N 11.0 mph17.7 kmh 30.75 in1041.3 mb 0.00 in0.0 mm 0.00 in0.0 mm 0.05 in1.3 mm
01:30 PM 44.1°F6.7°C 38.9°F3.8°C 82% 5.0 mph N8.0 kmh N 14.0 mph22.5 kmh 30.75 in1041.3 mb 0.00 in0.0 mm 0.00 in0.0 mm 0.05 in1.3 mm
01:20 PM 43.9°F6.6°C 39.1°F3.9°C 83% 4.0 mph NNE6.4 kmh NNE 12.0 mph19.3 kmh 30.75 in1041.3 mb 0.00 in0.0 mm 0.00 in0.0 mm 0.05 in1.3 mm
01:10 PM 43.3°F6.3°C 38.8°F3.8°C 84% 5.0 mph NNE8.0 kmh NNE 15.0 mph24.1 kmh 30.75 in1041.3 mb 0.00 in0.0 mm 0.00 in0.0 mm 0.05 in1.3 mm
01:00 PM 43.2°F6.2°C 38.7°F3.7°C 84% 4.0 mph N6.4 kmh N 16.0 mph25.7 kmh 30.74 in1041.0 mb 0.00 in0.0 mm 0.00 in0.0 mm 0.05 in1.3 mm
12:50 PM 42.6°F5.9°C 38.7°F3.7°C 86% 3.0 mph NNE4.8 kmh NNE 8.0 mph12.9 kmh 30.74 in1041.0 mb 0.00 in0.0 mm 0.00 in0.0 mm 0.05 in1.3 mm
12:40 PM 42.3°F5.7°C 38.4°F3.6°C 86% 3.0 mph N4.8 kmh N 8.0 mph12.9 kmh 30.74 in1041.0 mb 0.00 in0.0 mm 0.00 in0.0 mm 0.05 in1.3 mm
12:30 PM 42.4°F5.8°C 38.5°F3.6°C 86% 3.0 mph N4.8 kmh N 8.0 mph12.9 kmh 30.74 in1041.0 mb 0.00 in0.0 mm 0.00 in0.0 mm 0.05 in1.3 mm
12:20 PM 42.3°F5.7°C 39.2°F4.0°C 89% 3.0 mph NNW4.8 kmh NNW 7.0 mph11.3 kmh 30.74 in1041.0 mb 0.00 in0.0 mm 0.00 in0.0 mm 0.05 in1.3 mm
12:10 PM 41.5°F5.3°C 38.3°F3.5°C 88% 2.0 mph N3.2 kmh N 5.0 mph8.0 kmh 30.75 in1041.3 mb 0.00 in0.0 mm 0.00 in0.0 mm 0.05 in1.3 mm
12:00 PM 41.0°F5.0°C 38.0°F3.3°C 89% 4.0 mph N6.4 kmh N 10.0 mph16.1 kmh 30.74 in1041.0 mb 0.00 in0.0 mm 0.00 in0.0 mm 0.05 in1.3 mm
11:50 AM 40.6°F4.8°C 37.9°F3.3°C 90% 3.0 mph N4.8 kmh N 8.0 mph12.9 kmh 30.74 in1041.0 mb 0.00 in0.0 mm 0.00 in0.0 mm 0.05 in1.3 mm
11:40 AM 40.1°F4.5°C 37.7°F3.2°C 91% 3.0 mph N4.8 kmh N 9.0 mph14.5 kmh 30.74 in1041.0 mb 0.00 in0.0 mm 0.00 in0.0 mm 0.05 in1.3 mm
11:30 AM 39.6°F4.2°C 37.2°F2.9°C 91% 3.0 mph N4.8 kmh N 9.0 mph14.5 kmh 30.74 in1041.0 mb 0.00 in0.0 mm 0.00 in0.0 mm 0.05 in1.3 mm
11:20 AM 39.4°F4.1°C 37.2°F2.9°C 92% 3.0 mph N4.8 kmh N 8.0 mph12.9 kmh 30.74 in1041.0 mb 0.00 in0.0 mm 0.00 in0.0 mm 0.05 in1.3 mm
11:10 AM 39.0°F3.9°C 36.9°F2.7°C 92% 4.0 mph NNW6.4 kmh NNW 9.0 mph14.5 kmh 30.74 in1041.0 mb 0.00 in0.0 mm 0.00 in0.0 mm 0.05 in1.3 mm
11:00 AM 38.7°F3.7°C 36.5°F2.5°C 92% 5.0 mph NNW8.0 kmh NNW 11.0 mph17.7 kmh 30.73 in1040.6 mb 0.00 in0.0 mm 0.00 in0.0 mm 0.05 in1.3 mm
10:50 AM 38.1°F3.4°C 36.3°F2.4°C 93% 5.0 mph NNW8.0 kmh NNW 10.0 mph16.1 kmh 30.73 in1040.6 mb 0.00 in0.0 mm 0.00 in0.0 mm 0.05 in1.3 mm
10:40 AM 38.1°F3.4°C 36.3°F2.4°C 93% 5.0 mph NW8.0 kmh NW 10.0 mph16.1 kmh 30.72 in1040.3 mb 0.01 in0.3 mm 0.00 in0.0 mm 0.05 in1.3 mm
10:30 AM 37.8°F3.2°C 36.2°F2.3°C 94% 4.0 mph NW6.4 kmh NW 10.0 mph16.1 kmh 30.72 in1040.3 mb 0.01 in0.3 mm 0.00 in0.0 mm 0.05 in1.3 mm
10:20 AM 37.2°F2.9°C 35.7°F2.1°C 94% 4.0 mph NW6.4 kmh NW 7.0 mph11.3 kmh 30.71 in1040.0 mb 0.01 in0.3 mm 0.00 in0.0 mm 0.05 in1.3 mm
10:10 AM 36.9°F2.7°C 35.3°F1.8°C 94% 4.0 mph NNW6.4 kmh NNW 10.0 mph16.1 kmh 30.71 in1040.0 mb 0.01 in0.3 mm 0.00 in0.0 mm 0.05 in1.3 mm
10:00 AM 36.7°F2.6°C 35.1°F1.7°C 94% 4.0 mph NNW6.4 kmh NNW 8.0 mph12.9 kmh 30.70 in1039.6 mb 0.01 in0.3 mm 0.00 in0.0 mm 0.05 in1.3 mm
09:50 AM 36.3°F2.4°C 34.8°F1.6°C 94% 5.0 mph NW8.0 kmh NW 10.0 mph16.1 kmh 30.70 in1039.6 mb 0.01 in0.3 mm 0.06 in1.5 mm 0.05 in1.3 mm
09:40 AM 36.1°F2.3°C 34.6°F1.4°C 94% 6.0 mph NW9.7 kmh NW 10.0 mph16.1 kmh 30.70 in1039.6 mb 0.00 in0.0 mm 0.00 in0.0 mm 0.04 in1.0 mm
09:30 AM 36.0°F2.2°C 34.4°F1.3°C 94% 5.0 mph NW8.0 kmh NW 10.0 mph16.1 kmh 30.68 in1038.9 mb 0.00 in0.0 mm 0.00 in0.0 mm 0.04 in1.0 mm
09:20 AM 35.8°F2.1°C 34.2°F1.2°C 94% 4.0 mph NW6.4 kmh NW 10.0 mph16.1 kmh 30.68 in1038.9 mb 0.00 in0.0 mm 0.00 in0.0 mm 0.04 in1.0 mm
09:10 AM 35.8°F2.1°C 34.0°F1.1°C 93% 4.0 mph NW6.4 kmh NW 10.0 mph16.1 kmh 30.68 in1038.9 mb 0.00 in0.0 mm 0.00 in0.0 mm 0.04 in1.0 mm
09:00 AM 36.0°F2.2°C 34.1°F1.2°C 93% 4.0 mph NW6.4 kmh NW 9.0 mph14.5 kmh 30.67 in1038.6 mb 0.00 in0.0 mm 0.00 in0.0 mm 0.04 in1.0 mm
08:50 AM 36.1°F2.3°C 34.6°F1.4°C 94% 4.0 mph NNW6.4 kmh NNW 10.0 mph16.1 kmh 30.66 in1038.3 mb 0.00 in0.0 mm 0.00 in0.0 mm 0.04 in1.0 mm
08:40 AM 36.0°F2.2°C 34.4°F1.3°C 94% 4.0 mph NW6.4 kmh NW 10.0 mph16.1 kmh 30.66 in1038.3 mb 0.00 in0.0 mm 0.00 in0.0 mm 0.04 in1.0 mm
08:30 AM 35.6°F2.0°C 34.0°F1.1°C 94% 4.0 mph NW6.4 kmh NW 9.0 mph14.5 kmh 30.66 in1038.3 mb 0.00 in0.0 mm 0.00 in0.0 mm 0.04 in1.0 mm
08:20 AM 35.2°F1.8°C 34.0°F1.1°C 95% 4.0 mph NW6.4 kmh NW 8.0 mph12.9 kmh 30.65 in1037.9 mb 0.00 in0.0 mm 0.00 in0.0 mm 0.04 in1.0 mm
08:10 AM 35.1°F1.7°C 33.5°F0.8°C 94% 3.0 mph NW4.8 kmh NW 7.0 mph11.3 kmh 30.65 in1037.9 mb 0.00 in0.0 mm 0.00 in0.0 mm 0.04 in1.0 mm
08:00 AM 34.9°F1.6°C 33.3°F0.7°C 94% 3.0 mph NW4.8 kmh NW 5.0 mph8.0 kmh 30.64 in1037.6 mb 0.00 in0.0 mm 0.00 in0.0 mm 0.04 in1.0 mm
07:50 AM 34.7°F1.5°C 33.2°F0.7°C 94% 2.0 mph NW3.2 kmh NW 5.0 mph8.0 kmh 30.63 in1037.3 mb 0.00 in0.0 mm 0.00 in0.0 mm 0.04 in1.0 mm
07:40 AM 34.9°F1.6°C 33.3°F0.7°C 94% 3.0 mph NW4.8 kmh NW 6.0 mph9.7 kmh 30.63 in1037.3 mb 0.00 in0.0 mm 0.00 in0.0 mm 0.04 in1.0 mm
07:30 AM 34.9°F1.6°C 33.3°F0.7°C 94% 3.0 mph NW4.8 kmh NW 6.0 mph9.7 kmh 30.63 in1037.3 mb 0.00 in0.0 mm 0.00 in0.0 mm 0.04 in1.0 mm
07:20 AM 34.9°F1.6°C 33.3°F0.7°C 94% 3.0 mph NW4.8 kmh NW 6.0 mph9.7 kmh 30.63 in1037.3 mb 0.00 in0.0 mm 0.00 in0.0 mm 0.04 in1.0 mm
07:10 AM 35.1°F1.7°C 33.2°F0.7°C 93% 3.0 mph NNW4.8 kmh NNW 7.0 mph11.3 kmh 30.62 in1036.9 mb 0.00 in0.0 mm 0.00 in0.0 mm 0.04 in1.0 mm
07:00 AM 35.2°F1.8°C 33.7°F0.9°C 94% 3.0 mph NNW4.8 kmh NNW 7.0 mph11.3 kmh 30.62 in1036.9 mb 0.00 in0.0 mm 0.00 in0.0 mm 0.04 in1.0 mm
06:50 AM 35.4°F1.9°C 33.9°F1.1°C 94% 4.0 mph NNW6.4 kmh NNW 8.0 mph12.9 kmh 30.62 in1036.9 mb 0.00 in0.0 mm 0.00 in0.0 mm 0.04 in1.0 mm
06:40 AM 35.2°F1.8°C 33.4°F0.8°C 93% 4.0 mph NW6.4 kmh NW 11.0 mph17.7 kmh 30.62 in1036.9 mb 0.00 in0.0 mm 0.00 in0.0 mm 0.04 in1.0 mm
06:30 AM 35.1°F1.7°C 33.2°F0.7°C 93% 3.0 mph NW4.8 kmh NW 6.0 mph9.7 kmh 30.61 in1036.6 mb 0.00 in0.0 mm 0.00 in0.0 mm 0.04 in1.0 mm
06:20 AM 35.1°F1.7°C 33.2°F0.7°C 93% 3.0 mph NW4.8 kmh NW 7.0 mph11.3 kmh 30.61 in1036.6 mb 0.00 in0.0 mm 0.00 in0.0 mm 0.04 in1.0 mm
06:10 AM 35.2°F1.8°C 33.4°F0.8°C 93% 4.0 mph NW6.4 kmh NW 9.0 mph14.5 kmh 30.61 in1036.6 mb 0.01 in0.3 mm 0.00 in0.0 mm 0.04 in1.0 mm
06:00 AM 35.4°F1.9°C 33.3°F0.7°C 92% 3.0 mph NNW4.8 kmh NNW 6.0 mph9.7 kmh 30.61 in1036.6 mb 0.04 in1.0 mm 0.00 in0.0 mm 0.04 in1.0 mm
05:50 AM 36.0°F2.2°C 33.9°F1.1°C 92% 2.0 mph N3.2 kmh N 6.0 mph9.7 kmh 30.60 in1036.2 mb 0.04 in1.0 mm 0.00 in0.0 mm 0.04 in1.0 mm
05:40 AM 36.3°F2.4°C 34.2°F1.2°C 92% 3.0 mph NNW4.8 kmh NNW 9.0 mph14.5 kmh 30.61 in1036.6 mb 0.04 in1.0 mm 0.00 in0.0 mm 0.04 in1.0 mm
05:30 AM 36.3°F2.4°C 34.2°F1.2°C 92% 3.0 mph NW4.8 kmh NW 9.0 mph14.5 kmh 30.61 in1036.6 mb 0.04 in1.0 mm 0.00 in0.0 mm 0.04 in1.0 mm
05:20 AM 36.5°F2.5°C 34.4°F1.3°C 92% 3.0 mph NW4.8 kmh NW 6.0 mph9.7 kmh 30.60 in1036.2 mb 0.04 in1.0 mm 0.12 in3.0 mm 0.04 in1.0 mm
05:10 AM 36.3°F2.4°C 34.2°F1.2°C 92% 4.0 mph NW6.4 kmh NW 11.0 mph17.7 kmh 30.60 in1036.2 mb 0.02 in0.5 mm 0.12 in3.0 mm 0.02 in0.5 mm
05:00 AM 36.1°F2.3°C 33.8°F1.0°C 91% 3.0 mph NW4.8 kmh NW 7.0 mph11.3 kmh 30.59 in1035.9 mb 0.00 in0.0 mm 0.00 in0.0 mm 0.00 in0.0 mm
04:50 AM 36.1°F2.3°C 33.8°F1.0°C 91% 4.0 mph NW6.4 kmh NW 8.0 mph12.9 kmh 30.59 in1035.9 mb 0.00 in0.0 mm 0.00 in0.0 mm 0.00 in0.0 mm
04:40 AM 36.0°F2.2°C 33.6°F0.9°C 91% 3.0 mph NW4.8 kmh NW 7.0 mph11.3 kmh 30.59 in1035.9 mb 0.00 in0.0 mm 0.00 in0.0 mm 0.00 in0.0 mm
04:30 AM 35.8°F2.1°C 33.4°F0.8°C 91% 3.0 mph NW4.8 kmh NW 7.0 mph11.3 kmh 30.59 in1035.9 mb 0.00 in0.0 mm 0.00 in0.0 mm 0.00 in0.0 mm
04:20 AM 35.4°F1.9°C 33.1°F0.6°C 91% 3.0 mph NW4.8 kmh NW 6.0 mph9.7 kmh 30.58 in1035.6 mb 0.00 in0.0 mm 0.00 in0.0 mm 0.00 in0.0 mm
04:10 AM 35.4°F1.9°C 33.1°F0.6°C 91% 3.0 mph NW4.8 kmh NW 6.0 mph9.7 kmh 30.58 in1035.6 mb 0.00 in0.0 mm 0.00 in0.0 mm 0.00 in0.0 mm
04:00 AM 35.6°F2.0°C 33.0°F0.6°C 90% 3.0 mph NW4.8 kmh NW 6.0 mph9.7 kmh 30.58 in1035.6 mb 0.00 in0.0 mm 0.00 in0.0 mm 0.00 in0.0 mm
03:50 AM 35.8°F2.1°C 33.1°F0.6°C 90% 3.0 mph NW4.8 kmh NW 6.0 mph9.7 kmh 30.57 in1035.2 mb 0.00 in0.0 mm 0.00 in0.0 mm 0.00 in0.0 mm
03:40 AM 36.0°F2.2°C 33.3°F0.7°C 90% 3.0 mph NW4.8 kmh NW 8.0 mph12.9 kmh 30.57 in1035.2 mb 0.00 in0.0 mm 0.00 in0.0 mm 0.00 in0.0 mm
03:30 AM 36.1°F2.3°C 33.5°F0.8°C 90% 3.0 mph NW4.8 kmh NW 6.0 mph9.7 kmh 30.57 in1035.2 mb 0.00 in0.0 mm 0.00 in0.0 mm 0.00 in0.0 mm
03:20 AM 36.3°F2.4°C 33.7°F0.9°C 90% 3.0 mph NW4.8 kmh NW 7.0 mph11.3 kmh 30.57 in1035.2 mb 0.00 in0.0 mm 0.00 in0.0 mm 0.00 in0.0 mm
03:10 AM 36.3°F2.4°C 33.7°F0.9°C 90% 3.0 mph NW4.8 kmh NW 6.0 mph9.7 kmh 30.56 in1034.9 mb 0.00 in0.0 mm 0.00 in0.0 mm 0.00 in0.0 mm
03:00 AM 36.3°F2.4°C 33.7°F0.9°C 90% 3.0 mph NW4.8 kmh NW 6.0 mph9.7 kmh 30.56 in1034.9 mb 0.00 in0.0 mm 0.00 in0.0 mm 0.00 in0.0 mm
02:50 AM 36.3°F2.4°C 33.7°F0.9°C 90% 3.0 mph NW4.8 kmh NW 8.0 mph12.9 kmh 30.56 in1034.9 mb 0.00 in0.0 mm 0.00 in0.0 mm 0.00 in0.0 mm
02:40 AM 36.3°F2.4°C 33.7°F0.9°C 90% 3.0 mph NW4.8 kmh NW 7.0 mph11.3 kmh 30.55 in1034.5 mb 0.00 in0.0 mm 0.00 in0.0 mm 0.00 in0.0 mm
02:30 AM 36.1°F2.3°C 33.5°F0.8°C 90% 2.0 mph NW3.2 kmh NW 4.0 mph6.4 kmh 30.55 in1034.5 mb 0.00 in0.0 mm 0.00 in0.0 mm 0.00 in0.0 mm
02:20 AM 36.1°F2.3°C 33.8°F1.0°C 91% 3.0 mph NW4.8 kmh NW 5.0 mph8.0 kmh 30.55 in1034.5 mb 0.00 in0.0 mm 0.00 in0.0 mm 0.00 in0.0 mm
02:10 AM 36.1°F2.3°C 33.8°F1.0°C 91% 2.0 mph NW3.2 kmh NW 5.0 mph8.0 kmh 30.54 in1034.2 mb 0.00 in0.0 mm 0.00 in0.0 mm 0.00 in0.0 mm
02:00 AM 35.8°F2.1°C 33.4°F0.8°C 91% 2.0 mph NW3.2 kmh NW 5.0 mph8.0 kmh 30.54 in1034.2 mb 0.00 in0.0 mm 0.00 in0.0 mm 0.00 in0.0 mm
01:50 AM 35.6°F2.0°C 33.2°F0.7°C 91% 3.0 mph NW4.8 kmh NW 6.0 mph9.7 kmh 30.53 in1033.9 mb 0.00 in0.0 mm 0.00 in0.0 mm 0.00 in0.0 mm
01:40 AM 35.6°F2.0°C 33.2°F0.7°C 91% 3.0 mph NW4.8 kmh NW 6.0 mph9.7 kmh 30.53 in1033.9 mb 0.00 in0.0 mm 0.00 in0.0 mm 0.00 in0.0 mm
01:30 AM 35.4°F1.9°C 33.1°F0.6°C 91% 3.0 mph NW4.8 kmh NW 6.0 mph9.7 kmh 30.53 in1033.9 mb 0.00 in0.0 mm 0.00 in0.0 mm 0.00 in0.0 mm
01:20 AM 35.2°F1.8°C 32.9°F0.5°C 91% 2.0 mph NW3.2 kmh NW 5.0 mph8.0 kmh 30.52 in1033.5 mb 0.00 in0.0 mm 0.00 in0.0 mm 0.00 in0.0 mm
01:10 AM 35.2°F1.8°C 32.9°F0.5°C 91% 2.0 mph NW3.2 kmh NW 5.0 mph8.0 kmh 30.52 in1033.5 mb 0.00 in0.0 mm 0.00 in0.0 mm 0.00 in0.0 mm
01:00 AM 35.2°F1.8°C 32.9°F0.5°C 91% 2.0 mph NW3.2 kmh NW 5.0 mph8.0 kmh 30.52 in1033.5 mb 0.00 in0.0 mm 0.00 in0.0 mm 0.00 in0.0 mm
12:50 AM 35.2°F1.8°C 32.9°F0.5°C 91% 2.0 mph NW3.2 kmh NW 5.0 mph8.0 kmh 30.51 in1033.2 mb 0.00 in0.0 mm 0.00 in0.0 mm 0.00 in0.0 mm
12:40 AM 35.2°F1.8°C 32.9°F0.5°C 91% 2.0 mph NW3.2 kmh NW 4.0 mph6.4 kmh 30.51 in1033.2 mb 0.00 in0.0 mm 0.00 in0.0 mm 0.00 in0.0 mm
12:30 AM 35.2°F1.8°C 32.9°F0.5°C 91% 2.0 mph NW3.2 kmh NW 5.0 mph8.0 kmh 30.51 in1033.2 mb 0.00 in0.0 mm 0.00 in0.0 mm 0.00 in0.0 mm
12:20 AM 35.2°F1.8°C 32.9°F0.5°C 91% 2.0 mph NW3.2 kmh NW 4.0 mph6.4 kmh 30.50 in1032.8 mb 0.00 in0.0 mm 0.00 in0.0 mm 0.00 in0.0 mm
12:10 AM 35.2°F1.8°C 32.9°F0.5°C 91% 2.0 mph NW3.2 kmh NW 4.0 mph6.4 kmh 30.50 in1032.8 mb 0.00 in0.0 mm 0.00 in0.0 mm 0.00 in0.0 mm
12:00 AM 35.4°F1.9°C 33.1°F0.6°C 91% 2.0 mph NW3.2 kmh NW 3.0 mph4.8 kmh 30.50 in1032.8 mb 0.00 in0.0 mm 0.00 in0.0 mm 0.00 in0.0 mm